createdAt,value
2022-11-17T00:01:25.539Z,4.22
2022-11-17T00:03:53.136Z,4.17
2022-11-17T00:06:21.678Z,3.35
2022-11-17T00:08:49.355Z,3.55
2022-11-17T00:14:03.060Z,3.55
2022-11-17T00:16:30.177Z,3.25
2022-11-17T00:19:17.521Z,4.22
2022-11-17T00:21:44.585Z,3.58
2022-11-17T00:24:16.319Z,3.58
2022-11-17T00:27:01.617Z,3.58
2022-11-17T00:29:31.144Z,3.77
2022-11-17T00:32:17.370Z,3.65
2022-11-17T00:34:45.723Z,3.50
2022-11-17T00:37:13.541Z,3.50
2022-11-17T00:39:40.116Z,4.25
2022-11-17T00:42:07.747Z,4.05
2022-11-17T00:44:34.443Z,4.30
2022-11-17T00:47:01.977Z,3.57
2022-11-17T00:49:36.696Z,3.60
2022-11-17T00:52:03.531Z,3.45
2022-11-17T00:54:30.881Z,3.78
2022-11-17T00:56:58.102Z,4.05
2022-11-17T00:59:25.327Z,3.50
2022-11-17T01:01:52.435Z,3.90
2022-11-17T01:04:19.553Z,3.88
2022-11-17T01:06:49.487Z,3.58
2022-11-17T01:09:21.293Z,3.40
2022-11-17T01:11:51.100Z,3.95
2022-11-17T01:14:21.481Z,4.20
2022-11-17T01:16:50.089Z,4.20
2022-11-17T01:19:17.724Z,3.20
2022-11-17T01:21:44.561Z,3.57
2022-11-17T01:24:12.456Z,3.92
2022-11-17T01:26:43.361Z,4.03
2022-11-17T01:29:17.288Z,3.22
2022-11-17T01:31:51.044Z,3.45
2022-11-17T01:34:18.401Z,4.18
2022-11-17T01:37:04.041Z,3.80
2022-11-17T01:39:31.245Z,3.92
2022-11-17T01:42:03.916Z,3.30
2022-11-17T01:44:36.366Z,3.95
2022-11-17T01:47:05.056Z,4.47
2022-11-17T01:49:34.499Z,4.43
2022-11-17T01:52:05.658Z,4.03
2022-11-17T01:54:36.213Z,3.90
2022-11-17T01:57:09.912Z,3.17
2022-11-17T01:59:48.123Z,4.40
2022-11-17T02:02:15.304Z,3.73
2022-11-17T02:04:49.745Z,4.10
2022-11-17T02:07:24.623Z,3.50
2022-11-17T02:09:53.297Z,4.43
2022-11-17T02:14:49.420Z,4.55
2022-11-17T02:17:16.808Z,4.63
2022-11-17T02:19:45.852Z,4.13
2022-11-17T02:22:34.107Z,3.78
2022-11-17T02:28:16.703Z,5.03
2022-11-17T02:30:57.877Z,4.25
2022-11-17T02:33:34.404Z,3.03
2022-11-17T02:36:12.714Z,4.43
2022-11-17T02:38:44.250Z,5.05
2022-11-17T02:41:35.903Z,4.00
2022-11-17T02:44:15.989Z,4.13
2022-11-17T02:46:48.320Z,3.90
2022-11-17T02:49:23.887Z,3.92
2022-11-17T02:51:53.675Z,3.90
2022-11-17T02:54:22.770Z,4.28
2022-11-17T02:56:49.415Z,3.88
2022-11-17T02:59:17.958Z,3.53
2022-11-17T03:02:05.177Z,2.85
2022-11-17T03:04:55.128Z,2.90
2022-11-17T03:07:50.873Z,2.95
2022-11-17T03:10:21.760Z,2.85
2022-11-17T03:13:12.364Z,2.40
2022-11-17T03:16:01.898Z,2.78
2022-11-17T03:18:57.379Z,3.15
2022-11-17T03:21:32.003Z,3.28
2022-11-17T03:24:22.095Z,3.53
2022-11-17T03:26:58.287Z,3.53
2022-11-17T03:29:28.870Z,2.92
2022-11-17T03:32:00.315Z,3.95
2022-11-17T03:34:29.830Z,3.30
2022-11-17T03:37:00.899Z,3.78
2022-11-17T03:39:32.162Z,3.78
2022-11-17T03:42:12.039Z,4.13
2022-11-17T03:44:41.305Z,3.33
2022-11-17T03:47:11.802Z,3.83
2022-11-17T03:49:49.377Z,4.18
2022-11-17T03:52:16.249Z,3.35
2022-11-17T03:54:42.684Z,3.80
2022-11-17T03:57:31.407Z,3.47
2022-11-17T04:00:04.280Z,3.88
2022-11-17T04:02:31.012Z,3.90
2022-11-17T04:05:06.399Z,3.85
2022-11-17T04:07:40.957Z,3.58
2022-11-17T04:10:13.326Z,4.10
2022-11-17T04:12:58.113Z,2.88
2022-11-17T04:15:43.468Z,3.97
2022-11-17T04:18:09.935Z,3.97
2022-11-17T04:20:37.545Z,4.23
2022-11-17T04:23:08.699Z,4.57
2022-11-17T04:26:00.304Z,4.68
2022-11-17T04:28:36.908Z,3.83
2022-11-17T04:31:03.360Z,3.72
2022-11-17T04:33:30.092Z,3.88
2022-11-17T04:35:57.059Z,3.80
2022-11-17T04:38:23.481Z,3.85
2022-11-17T04:41:08.717Z,4.40
2022-11-17T04:43:37.211Z,4.30
2022-11-17T04:46:03.868Z,4.82
2022-11-17T04:48:30.239Z,5.13
2022-11-17T04:50:57.454Z,4.30
2022-11-17T04:53:24.635Z,4.70
2022-11-17T04:55:53.378Z,3.88
2022-11-17T04:58:19.769Z,4.30
2022-11-17T05:00:46.141Z,4.85
2022-11-17T05:03:12.531Z,4.72
2022-11-17T05:05:38.917Z,4.60
2022-11-17T05:08:05.312Z,4.38
2022-11-17T05:10:50.376Z,4.60
2022-11-17T05:13:22.490Z,4.07
2022-11-17T05:16:07.746Z,4.03
2022-11-17T05:18:34.130Z,4.53
2022-11-17T05:21:09.257Z,4.38
2022-11-17T05:23:53.859Z,3.95
2022-11-17T05:26:26.919Z,4.10
2022-11-17T05:28:55.820Z,5.07
2022-11-17T05:31:23.098Z,4.05
2022-11-17T05:33:49.660Z,4.65
2022-11-17T05:36:16.641Z,4.07
2022-11-17T05:38:43.232Z,5.13
2022-11-17T05:41:09.645Z,4.68
2022-11-17T05:43:36.490Z,4.47
2022-11-17T05:46:03.272Z,4.53
2022-11-17T05:48:29.945Z,5.13
2022-11-17T05:50:57.036Z,4.60
2022-11-17T05:53:24.145Z,4.82
2022-11-17T05:55:50.808Z,4.10
2022-11-17T05:58:25.388Z,4.82
2022-11-17T06:00:53.636Z,4.55
2022-11-17T06:03:32.041Z,5.13
2022-11-17T06:05:58.668Z,4.45
2022-11-17T06:08:26.080Z,4.22
2022-11-17T06:10:52.521Z,4.97
2022-11-17T06:13:26.005Z,4.95
2022-11-17T06:15:54.299Z,4.72
2022-11-17T06:18:28.787Z,4.75
2022-11-17T06:20:55.308Z,4.47
2022-11-17T06:23:25.934Z,5.25
2022-11-17T06:25:52.745Z,5.03
2022-11-17T06:28:21.926Z,5.30
2022-11-17T06:30:49.192Z,5.03
2022-11-17T06:33:17.495Z,4.93
2022-11-17T06:35:46.509Z,4.70
2022-11-17T06:40:39.259Z,3.78
2022-11-17T06:43:09.427Z,4.30
2022-11-17T06:45:39.082Z,4.13
2022-11-17T06:48:07.111Z,3.85
2022-11-17T06:50:33.655Z,3.13
2022-11-17T06:53:02.453Z,4.70
2022-11-17T06:55:30.627Z,4.53
2022-11-17T07:00:34.475Z,4.82
2022-11-17T07:03:10.805Z,3.92
2022-11-17T07:05:40.222Z,4.70
2022-11-17T07:08:08.536Z,3.92
2022-11-17T07:10:35.899Z,4.00
2022-11-17T07:13:03.259Z,4.78
2022-11-17T07:15:30.214Z,4.32
2022-11-17T07:17:57.459Z,5.25
2022-11-17T07:20:24.022Z,4.57
2022-11-17T07:22:50.559Z,4.43
2022-11-17T07:25:22.134Z,4.78
2022-11-17T07:27:48.916Z,5.50
2022-11-17T07:30:15.765Z,4.60
2022-11-17T07:32:42.258Z,4.80
2022-11-17T07:35:09.010Z,4.60
2022-11-17T07:37:35.789Z,4.60
2022-11-17T07:40:02.217Z,4.30
2022-11-17T07:42:28.645Z,3.53
2022-11-17T07:44:55.105Z,3.65
2022-11-17T07:47:21.684Z,4.03
2022-11-17T07:49:48.212Z,4.47
2022-11-17T07:52:17.733Z,3.97
2022-11-17T07:54:44.279Z,2.20
2022-11-17T07:57:10.830Z,3.45
2022-11-17T07:59:37.291Z,2.95
2022-11-17T08:02:03.822Z,3.17
2022-11-17T08:04:30.346Z,3.40
2022-11-17T08:06:56.902Z,3.50
2022-11-17T08:09:23.390Z,3.13
2022-11-17T08:11:51.765Z,3.10
2022-11-17T08:14:18.241Z,2.90
2022-11-17T08:16:44.738Z,2.95
2022-11-17T08:19:12.071Z,3.10
2022-11-17T08:21:38.748Z,3.03
2022-11-17T08:24:05.615Z,2.63
2022-11-17T08:26:32.100Z,2.40
2022-11-17T08:28:59.105Z,2.20
2022-11-17T08:31:25.935Z,2.15
2022-11-17T08:33:52.459Z,1.90
2022-11-17T08:36:18.939Z,2.35
2022-11-17T08:38:45.378Z,2.20
2022-11-17T08:41:11.885Z,1.95
2022-11-17T08:43:38.502Z,1.98
2022-11-17T08:46:05.266Z,2.05
2022-11-17T08:48:32.448Z,2.10
2022-11-17T08:51:04.953Z,1.92
2022-11-17T08:53:31.456Z,2.20
2022-11-17T08:55:57.958Z,1.75
2022-11-17T08:58:24.449Z,1.38
2022-11-17T09:00:51.200Z,1.48
2022-11-17T09:03:17.773Z,1.80
2022-11-17T09:05:47.073Z,1.60
2022-11-17T09:11:06.488Z,1.50
2022-11-17T09:13:33.788Z,1.50
2022-11-17T09:16:08.644Z,1.23
2022-11-17T09:18:38.052Z,1.52
2022-11-17T09:21:10.364Z,1.25
2022-11-17T09:23:37.645Z,1.20
2022-11-17T09:26:10.880Z,1.30
2022-11-17T09:28:38.123Z,1.42
2022-11-17T09:31:16.669Z,1.60
2022-11-17T09:33:43.317Z,3.17
2022-11-17T09:36:10.664Z,1.80
2022-11-17T09:38:38.465Z,1.60
2022-11-17T09:41:11.321Z,1.42
2022-11-17T09:43:39.598Z,1.90
2022-11-17T09:46:16.537Z,1.35
2022-11-17T09:48:57.299Z,1.38
2022-11-17T09:51:26.647Z,1.60
2022-11-17T09:54:02.729Z,1.38
2022-11-17T09:56:30.422Z,1.20
2022-11-17T09:59:01.337Z,1.95
2022-11-17T10:01:28.946Z,1.02
2022-11-17T10:03:59.055Z,1.23
2022-11-17T10:06:28.680Z,1.23
2022-11-17T10:09:00.533Z,1.60
2022-11-17T10:11:33.513Z,1.30
2022-11-17T10:14:08.876Z,1.30
2022-11-17T10:16:37.227Z,0.90
2022-11-17T10:22:03.776Z,0.60
2022-11-17T10:24:37.481Z,1.25
2022-11-17T10:27:28.721Z,1.00
2022-11-17T10:30:03.412Z,1.00
2022-11-17T10:32:48.282Z,0.90
2022-11-17T10:35:23.100Z,1.00
2022-11-17T10:37:58.837Z,1.17
2022-11-17T10:40:31.961Z,0.90
2022-11-17T10:43:01.335Z,1.10
2022-11-17T10:45:28.588Z,1.08
2022-11-17T10:48:09.534Z,0.85
2022-11-17T10:50:36.597Z,1.23
2022-11-17T10:53:23.038Z,0.95
2022-11-17T10:56:14.345Z,0.98
2022-11-17T10:58:56.734Z,1.25
2022-11-17T11:01:29.463Z,1.10
2022-11-17T11:03:56.277Z,1.15
2022-11-17T11:06:26.770Z,1.00
2022-11-17T11:09:13.588Z,0.80
2022-11-17T11:11:53.630Z,1.00
2022-11-17T11:14:39.271Z,1.05
2022-11-17T11:17:17.471Z,1.38
2022-11-17T11:19:51.730Z,0.98
2022-11-17T11:22:45.658Z,0.90
2022-11-17T11:25:37.961Z,1.10
2022-11-17T11:28:13.435Z,1.23
2022-11-17T11:30:59.423Z,1.40
2022-11-17T11:33:39.388Z,0.82
2022-11-17T11:36:18.168Z,1.30
2022-11-17T11:38:51.498Z,1.20
2022-11-17T11:41:31.907Z,0.90
2022-11-17T11:44:13.497Z,0.90
2022-11-17T11:47:05.664Z,1.10
2022-11-17T11:49:45.802Z,1.15
2022-11-17T11:52:20.554Z,1.23
2022-11-17T11:55:01.521Z,1.17
2022-11-17T11:57:45.826Z,1.30
2022-11-17T12:00:17.198Z,1.15
2022-11-17T12:03:03.805Z,1.10
2022-11-17T12:05:36.424Z,1.30
2022-11-17T12:08:13.884Z,1.00
2022-11-17T12:11:00.721Z,1.83
2022-11-17T12:13:27.542Z,1.00
2022-11-17T12:16:17.598Z,1.17
2022-11-17T12:18:44.040Z,1.40
2022-11-17T12:21:24.715Z,0.98
2022-11-17T12:24:15.171Z,1.17
2022-11-17T12:26:41.905Z,0.98
2022-11-17T12:29:20.487Z,1.20
2022-11-17T12:31:55.786Z,1.00
2022-11-17T12:34:24.597Z,1.00
2022-11-17T12:37:10.129Z,1.13
2022-11-17T12:40:04.405Z,1.35
2022-11-17T12:42:33.385Z,1.20
2022-11-17T12:45:07.577Z,1.45
2022-11-17T12:47:37.649Z,1.10
2022-11-17T12:50:32.019Z,1.20
2022-11-17T12:53:13.599Z,1.33
2022-11-17T12:56:21.775Z,1.23
2022-11-17T12:58:48.198Z,1.40
2022-11-17T13:01:45.469Z,1.30
2022-11-17T13:04:17.471Z,1.30
2022-11-17T13:07:01.124Z,1.05
2022-11-17T13:09:31.025Z,1.25
2022-11-17T13:12:09.738Z,1.10
2022-11-17T13:14:51.270Z,1.20
2022-11-17T13:17:20.538Z,1.52
2022-11-17T13:19:47.027Z,1.40
2022-11-17T13:22:18.769Z,1.30
2022-11-17T13:24:47.661Z,1.00
2022-11-17T13:27:26.268Z,1.27
2022-11-17T13:30:12.777Z,1.20
2022-11-17T13:32:41.151Z,1.30
2022-11-17T13:38:11.137Z,1.30
2022-11-17T13:40:40.356Z,1.30
2022-11-17T13:43:11.570Z,1.15
2022-11-17T13:45:38.223Z,1.00
2022-11-17T13:48:04.769Z,1.10
2022-11-17T13:50:31.157Z,1.13
2022-11-17T13:53:25.407Z,1.30
2022-11-17T13:55:52.460Z,1.00
2022-11-17T13:58:40.780Z,1.27
2022-11-17T14:01:11.968Z,0.95
2022-11-17T14:03:42.746Z,1.10
2022-11-17T14:06:11.890Z,1.15
2022-11-17T14:08:40.904Z,1.35
2022-11-17T14:11:10.551Z,1.55
2022-11-17T14:13:45.003Z,1.55
2022-11-17T14:16:38.947Z,1.13
2022-11-17T14:19:25.193Z,1.38
2022-11-17T14:22:23.541Z,1.33
2022-11-17T14:24:54.098Z,1.17
2022-11-17T14:27:29.674Z,1.25
2022-11-17T14:29:56.171Z,1.02
2022-11-17T14:32:22.590Z,1.50
2022-11-17T14:34:49.076Z,1.30
2022-11-17T14:37:15.659Z,1.15
2022-11-17T14:39:42.211Z,1.15
2022-11-17T14:42:09.481Z,1.38
2022-11-17T14:44:36.041Z,1.35
2022-11-17T14:47:03.284Z,1.40
2022-11-17T14:49:29.859Z,1.00
2022-11-17T14:51:59.004Z,0.93
2022-11-17T14:54:25.701Z,1.20
2022-11-17T14:56:53.332Z,1.27
2022-11-17T14:59:19.763Z,1.50
2022-11-17T15:01:46.354Z,1.55
2022-11-17T15:04:48.429Z,1.30
2022-11-17T15:07:02.695Z,1.30
2022-11-17T15:09:29.499Z,1.60
2022-11-17T15:11:56.093Z,1.50
2022-11-17T15:14:22.543Z,1.63
2022-11-17T15:16:49.232Z,1.65
2022-11-17T15:19:15.788Z,1.58
2022-11-17T15:21:42.473Z,1.58
2022-11-17T15:24:09.268Z,1.60
2022-11-17T15:26:36.045Z,1.70
2022-11-17T15:29:02.744Z,1.50
2022-11-17T15:31:29.255Z,1.48
2022-11-17T15:33:55.843Z,1.65
2022-11-17T15:36:23.135Z,1.20
2022-11-17T15:38:50.280Z,1.10
2022-11-17T15:41:17.029Z,1.42
2022-11-17T15:43:44.654Z,1.60
2022-11-17T15:46:13.456Z,2.30
2022-11-17T15:48:43.153Z,1.90
2022-11-17T15:51:17.744Z,1.63
2022-11-17T15:53:46.425Z,1.48
2022-11-17T15:56:22.277Z,1.60
2022-11-17T15:58:57.948Z,2.05
2022-11-17T16:01:27.004Z,1.70
2022-11-17T16:03:58.207Z,1.80
2022-11-17T16:06:25.123Z,1.90
2022-11-17T16:08:51.577Z,1.60
2022-11-17T16:11:18.094Z,2.88
2022-11-17T16:13:44.663Z,3.05
2022-11-17T16:16:15.242Z,1.50
2022-11-17T16:18:42.064Z,1.80
2022-11-17T16:21:11.452Z,2.35
2022-11-17T16:23:41.990Z,1.65
2022-11-17T16:26:10.393Z,1.63
2022-11-17T16:31:15.213Z,2.60
2022-11-17T16:33:53.765Z,1.95
2022-11-17T16:36:22.285Z,1.65
2022-11-17T16:39:01.847Z,1.58
2022-11-17T16:41:34.369Z,1.77
2022-11-17T16:44:02.092Z,1.63
2022-11-17T16:46:32.337Z,2.00
2022-11-17T16:49:04.753Z,2.00
2022-11-17T16:51:31.547Z,1.83
2022-11-17T16:54:00.810Z,1.38
2022-11-17T16:56:28.129Z,1.88
2022-11-17T16:58:54.859Z,1.58
2022-11-17T17:01:25.093Z,1.80
2022-11-17T17:03:56.798Z,3.03
2022-11-17T17:06:23.279Z,1.50
2022-11-17T17:08:54.557Z,2.00
2022-11-17T17:11:21.069Z,2.20
2022-11-17T17:13:47.583Z,2.15
2022-11-17T17:16:16.141Z,2.22
2022-11-17T17:18:42.986Z,1.63
2022-11-17T17:21:16.349Z,2.63
2022-11-17T17:23:45.107Z,2.42
2022-11-17T17:26:16.810Z,2.40
2022-11-17T17:28:44.749Z,2.00
2022-11-17T17:31:16.762Z,2.20
2022-11-17T17:33:47.778Z,5.95
2022-11-17T17:36:22.561Z,2.42
2022-11-17T17:38:54.995Z,2.10
2022-11-17T17:41:26.462Z,1.85
2022-11-17T17:43:58.664Z,2.20
2022-11-17T17:46:25.815Z,1.75
2022-11-17T17:48:52.417Z,2.08
2022-11-17T17:51:21.349Z,1.60
2022-11-17T17:53:50.678Z,2.63
2022-11-17T17:56:19.719Z,2.08
2022-11-17T17:58:48.787Z,2.10
2022-11-17T18:01:18.444Z,2.40
2022-11-17T18:03:47.866Z,1.90
2022-11-17T18:06:16.402Z,2.10
2022-11-17T18:08:43.289Z,2.03
2022-11-17T18:11:16.842Z,2.35
2022-11-17T18:13:45.146Z,2.42
2022-11-17T18:16:14.415Z,2.50
2022-11-17T18:18:41.394Z,2.58
2022-11-17T18:21:11.067Z,4.10
2022-11-17T18:23:38.340Z,2.80
2022-11-17T18:26:16.595Z,3.20
2022-11-17T18:31:10.778Z,2.70
2022-11-17T18:33:37.485Z,2.38
2022-11-17T18:36:08.703Z,2.60
2022-11-17T18:38:36.914Z,2.70
2022-11-17T18:41:08.179Z,1.80
2022-11-17T18:43:35.170Z,1.83
2022-11-17T18:46:05.809Z,7.07
2022-11-17T18:48:33.866Z,5.55
2022-11-17T18:51:18.676Z,4.00
2022-11-17T18:53:46.006Z,2.38
2022-11-17T18:56:14.980Z,2.40
2022-11-17T18:58:42.742Z,2.15
2022-11-17T19:01:12.753Z,2.10
2022-11-17T19:03:39.656Z,1.98
2022-11-17T19:06:08.068Z,2.70
2022-11-17T19:11:06.069Z,1.95
2022-11-17T19:13:35.024Z,2.53
2022-11-17T19:16:07.730Z,2.30
2022-11-17T19:18:35.245Z,2.10
2022-11-17T19:21:07.897Z,2.10
2022-11-17T19:23:36.111Z,1.90
2022-11-17T19:26:07.710Z,2.05
2022-11-17T19:28:34.702Z,2.47
2022-11-17T19:31:12.103Z,2.17
2022-11-17T19:33:40.104Z,2.50
2022-11-17T19:36:31.166Z,2.30
2022-11-17T19:38:59.772Z,2.30
2022-11-17T19:41:29.071Z,2.13
2022-11-17T19:43:57.517Z,2.53
2022-11-17T19:48:51.443Z,2.58
2022-11-17T19:51:20.831Z,2.50
2022-11-17T19:53:52.533Z,4.47
2022-11-17T19:56:19.925Z,3.58
2022-11-17T19:58:47.170Z,2.10
2022-11-17T20:01:22.654Z,2.10
2022-11-17T20:03:50.207Z,2.20
2022-11-17T20:06:19.555Z,2.10
2022-11-17T20:08:47.193Z,2.40
2022-11-17T20:11:18.703Z,3.30
2022-11-17T20:13:45.396Z,3.17
2022-11-17T20:16:20.098Z,3.40
2022-11-17T20:18:50.775Z,2.63
2022-11-17T20:21:17.515Z,2.47
2022-11-17T20:23:44.106Z,2.50
2022-11-17T20:26:16.530Z,2.72
2022-11-17T20:28:43.528Z,3.05
2022-11-17T20:31:27.065Z,3.05
2022-11-17T20:34:00.322Z,2.35
2022-11-17T20:36:28.565Z,2.70
2022-11-17T20:38:57.782Z,2.58
2022-11-17T20:41:24.926Z,2.17
2022-11-17T20:43:53.466Z,2.50
2022-11-17T20:46:21.223Z,2.42
2022-11-17T20:48:48.522Z,2.40
2022-11-17T20:51:18.225Z,2.30
2022-11-17T20:53:44.893Z,2.55
2022-11-17T20:56:13.912Z,2.08
2022-11-17T20:58:40.402Z,2.20
2022-11-17T21:01:09.412Z,2.33
2022-11-17T21:03:36.357Z,2.28
2022-11-17T21:06:04.470Z,2.10
2022-11-17T21:08:37.942Z,2.60
2022-11-17T21:11:07.760Z,3.13
2022-11-17T21:13:37.171Z,2.30
2022-11-17T21:16:05.124Z,2.20
2022-11-17T21:18:32.204Z,2.53
2022-11-17T21:21:04.674Z,2.55
2022-11-17T21:23:31.399Z,2.55
2022-11-17T21:25:58.201Z,2.78
2022-11-17T21:28:27.254Z,2.58
2022-11-17T21:30:53.777Z,2.40
2022-11-17T21:33:21.419Z,2.60
2022-11-17T21:35:48.064Z,2.65
2022-11-17T21:38:14.533Z,2.25
2022-11-17T21:40:40.984Z,2.47
2022-11-17T21:43:07.513Z,2.25
2022-11-17T21:45:34.326Z,2.40
2022-11-17T21:48:01.066Z,2.67
2022-11-17T21:50:28.007Z,2.60
2022-11-17T21:52:55.692Z,2.17
2022-11-17T21:58:04.037Z,2.60
2022-11-17T22:00:30.493Z,2.70
2022-11-17T22:02:56.924Z,2.58
2022-11-17T22:05:23.318Z,2.63
2022-11-17T22:07:49.760Z,2.20
2022-11-17T22:10:16.489Z,2.20
2022-11-17T22:12:43.044Z,2.70
2022-11-17T22:15:11.815Z,2.58
2022-11-17T22:17:38.470Z,2.67
2022-11-17T22:20:05.563Z,2.40
2022-11-17T22:22:31.981Z,2.50
2022-11-17T22:25:11.483Z,2.65
2022-11-17T22:27:44.922Z,2.28
2022-11-17T22:30:12.130Z,2.67
2022-11-17T22:32:45.068Z,2.33
2022-11-17T22:35:11.909Z,2.15
2022-11-17T22:37:38.412Z,2.42
2022-11-17T22:40:05.382Z,2.20
2022-11-17T22:42:31.850Z,2.13
2022-11-17T22:44:58.308Z,2.50
2022-11-17T22:47:24.721Z,2.40
2022-11-17T22:49:51.163Z,2.33
2022-11-17T22:52:17.701Z,2.05
2022-11-17T22:54:44.503Z,2.33
2022-11-17T22:57:13.576Z,2.47
2022-11-17T22:59:39.985Z,2.17
2022-11-17T23:02:06.391Z,2.28
2022-11-17T23:04:32.795Z,2.40
2022-11-17T23:06:59.363Z,2.85
2022-11-17T23:09:26.047Z,2.25
2022-11-17T23:11:52.969Z,2.53
2022-11-17T23:14:19.465Z,2.50
2022-11-17T23:16:45.981Z,2.30
2022-11-17T23:19:13.775Z,2.20
2022-11-17T23:21:41.769Z,2.10
2022-11-17T23:24:14.316Z,2.88
2022-11-17T23:26:41.958Z,2.60
2022-11-17T23:29:09.333Z,2.60
2022-11-17T23:31:36.393Z,2.40
2022-11-17T23:34:03.309Z,2.50
2022-11-17T23:36:30.234Z,2.80
2022-11-17T23:38:57.640Z,2.50
2022-11-17T23:41:24.206Z,2.17
2022-11-17T23:43:53.918Z,3.42
2022-11-17T23:46:23.524Z,4.32
2022-11-17T23:48:50.385Z,4.10
2022-11-17T23:51:20.031Z,4.03
2022-11-17T23:53:49.470Z,4.00
2022-11-17T23:56:17.249Z,3.08
2022-11-17T23:58:44.196Z,2.30
